createdAt,value
2019-04-14T00:00:01.823Z,2.80
2019-04-14T00:02:36.140Z,2.80
2019-04-14T00:05:08.381Z,2.70
2019-04-14T00:07:38.460Z,2.70
2019-04-14T00:10:11.478Z,2.80
2019-04-14T00:12:40.859Z,2.80
2019-04-14T00:15:21.140Z,2.70
2019-04-14T00:17:43.274Z,2.70
2019-04-14T00:20:14.234Z,2.70
2019-04-14T00:22:44.612Z,2.70
2019-04-14T00:25:17.336Z,2.70
2019-04-14T00:27:47.540Z,2.70
2019-04-14T00:30:20.819Z,2.50
2019-04-14T00:32:53.457Z,2.50
2019-04-14T00:35:29.894Z,2.50
2019-04-14T00:38:23.766Z,2.50
2019-04-14T00:41:11.672Z,2.60
2019-04-14T00:43:49.028Z,2.50
2019-04-14T00:46:25.666Z,2.50
2019-04-14T00:48:54.632Z,2.50
2019-04-14T00:51:24.518Z,2.50
2019-04-14T00:53:53.907Z,2.50
2019-04-14T00:56:23.684Z,2.50
2019-04-14T00:58:54.005Z,2.40
2019-04-14T01:01:24.324Z,2.40
2019-04-14T01:03:54.772Z,2.50
2019-04-14T01:06:25.529Z,2.40
2019-04-14T01:08:55.407Z,2.40
2019-04-14T01:11:24.897Z,2.40
2019-04-14T01:13:59.699Z,2.40
2019-04-14T01:16:29.710Z,2.30
2019-04-14T01:18:59.015Z,2.40
2019-04-14T01:21:28.516Z,2.40
2019-04-14T01:23:58.809Z,2.40
2019-04-14T01:26:28.900Z,2.30
2019-04-14T01:28:59.242Z,2.30
2019-04-14T01:31:29.338Z,2.30
2019-04-14T01:33:59.793Z,2.30
2019-04-14T01:36:29.841Z,2.20
2019-04-14T01:38:58.807Z,2.20
2019-04-14T01:41:30.993Z,2.20
2019-04-14T01:44:00.336Z,2.20
2019-04-14T01:46:32.585Z,2.10
2019-04-14T01:49:02.880Z,2.20
2019-04-14T01:51:41.724Z,2.20
2019-04-14T01:54:21.403Z,2.10
2019-04-14T01:57:09.246Z,2.10
2019-04-14T01:59:39.127Z,2.00
2019-04-14T02:02:10.248Z,2.00
2019-04-14T02:04:39.870Z,2.00
2019-04-14T02:07:10.187Z,2.00
2019-04-14T02:09:47.365Z,2.00
2019-04-14T02:12:16.992Z,1.90
2019-04-14T02:14:47.768Z,1.90
2019-04-14T02:17:17.747Z,1.90
2019-04-14T02:19:48.134Z,1.80
2019-04-14T02:22:20.191Z,1.70
2019-04-14T02:24:50.300Z,1.70
2019-04-14T02:27:33.993Z,1.60
2019-04-14T02:30:17.364Z,1.60
2019-04-14T02:33:17.357Z,1.50
2019-04-14T02:35:47.147Z,1.50
2019-04-14T02:40:49.234Z,1.50
2019-04-14T02:43:25.649Z,1.50
2019-04-14T02:45:59.688Z,1.50
2019-04-14T02:48:31.335Z,1.50
2019-04-14T02:50:48.134Z,1.40
2019-04-14T02:55:49.226Z,1.40
2019-04-14T02:58:26.689Z,1.40
2019-04-14T03:01:09.514Z,1.40
2019-04-14T03:03:27.838Z,1.30
2019-04-14T03:05:58.015Z,1.30
2019-04-14T03:08:25.561Z,1.20
2019-04-14T03:10:53.973Z,1.20
2019-04-14T03:13:29.326Z,1.30
2019-04-14T03:15:57.138Z,1.20
2019-04-14T03:18:52.539Z,1.20
2019-04-14T03:22:00.887Z,1.20
2019-04-14T03:24:29.253Z,1.20
2019-04-14T03:27:26.607Z,1.20
2019-04-14T03:35:09.828Z,1.20
2019-04-14T03:42:38.337Z,1.10
2019-04-14T03:44:59.034Z,1.10
2019-04-14T03:47:34.835Z,1.10
2019-04-14T03:50:08.413Z,1.10
2019-04-14T03:52:39.995Z,1.20
2019-04-14T03:54:56.790Z,1.10
2019-04-14T03:57:08.322Z,1.10
2019-04-14T03:59:37.725Z,1.20
2019-04-14T04:02:07.488Z,1.20
2019-04-14T04:04:37.929Z,1.30
2019-04-14T04:07:08.133Z,1.30
2019-04-14T04:10:00.502Z,1.30
2019-04-14T04:12:29.523Z,1.40
2019-04-14T04:14:59.578Z,1.30
2019-04-14T04:17:45.169Z,1.30
2019-04-14T04:20:30.929Z,1.30
2019-04-14T04:23:18.403Z,1.30
2019-04-14T04:26:12.714Z,1.30
2019-04-14T04:29:00.514Z,1.30
2019-04-14T04:31:48.277Z,1.30
2019-04-14T04:34:40.358Z,1.20
2019-04-14T04:37:14.925Z,1.30
2019-04-14T04:39:45.738Z,1.20
2019-04-14T04:42:15.470Z,1.30
2019-04-14T04:44:44.625Z,1.30
2019-04-14T04:47:14.313Z,1.20
2019-04-14T04:49:44.711Z,1.30
2019-04-14T04:52:15.813Z,1.20
2019-04-14T04:54:45.069Z,1.30
2019-04-14T04:57:15.457Z,1.20
2019-04-14T04:59:45.294Z,1.20
2019-04-14T05:02:14.168Z,1.20
2019-04-14T05:04:44.439Z,1.20
2019-04-14T05:07:14.408Z,1.10
2019-04-14T05:10:02.990Z,1.20
2019-04-14T05:12:45.657Z,1.20
2019-04-14T05:15:40.255Z,1.20
2019-04-14T05:18:17.714Z,1.20
2019-04-14T05:20:46.942Z,1.20
2019-04-14T05:23:16.936Z,1.20
2019-04-14T05:25:45.898Z,1.20
2019-04-14T05:28:15.554Z,1.20
2019-04-14T05:30:45.828Z,1.30
2019-04-14T05:33:16.272Z,1.30
2019-04-14T05:35:45.219Z,1.30
2019-04-14T05:38:14.730Z,1.40
2019-04-14T05:40:45.080Z,1.40
2019-04-14T05:43:27.361Z,1.50
2019-04-14T05:45:45.785Z,1.50
2019-04-14T05:48:15.991Z,1.50
2019-04-14T05:50:44.927Z,1.60
2019-04-14T05:53:13.961Z,1.60
2019-04-14T05:55:43.835Z,1.60
2019-04-14T05:58:14.225Z,1.70
2019-04-14T06:00:46.436Z,1.60
2019-04-14T06:03:15.335Z,1.60
2019-04-14T06:05:45.322Z,1.70
2019-04-14T06:08:14.290Z,1.70
2019-04-14T06:10:44.343Z,1.80
2019-04-14T06:13:13.508Z,1.80
2019-04-14T06:15:42.347Z,1.70
2019-04-14T06:18:11.421Z,1.70
2019-04-14T06:20:40.530Z,1.80
2019-04-14T06:23:09.877Z,1.80
2019-04-14T06:25:38.996Z,1.80
2019-04-14T06:28:08.646Z,1.80
2019-04-14T06:31:02.377Z,1.80
2019-04-14T06:33:40.767Z,1.80
2019-04-14T06:36:27.986Z,1.90
2019-04-14T06:39:06.982Z,1.90
2019-04-14T06:41:36.331Z,2.00
2019-04-14T06:44:05.569Z,2.10
2019-04-14T06:46:34.635Z,2.10
2019-04-14T06:49:03.997Z,2.20
2019-04-14T06:51:33.119Z,2.30
2019-04-14T06:54:01.966Z,2.40
2019-04-14T06:56:31.242Z,2.50
2019-04-14T06:59:00.411Z,2.60
2019-04-14T07:01:29.759Z,2.60
2019-04-14T07:03:58.734Z,2.70
2019-04-14T07:06:27.681Z,2.70
2019-04-14T07:09:01.002Z,2.70
2019-04-14T07:11:32.590Z,2.80
2019-04-14T07:14:05.118Z,2.80
2019-04-14T07:16:33.962Z,3.00
2019-04-14T07:19:02.971Z,3.10
2019-04-14T07:21:33.048Z,3.20
2019-04-14T07:24:03.302Z,3.30
2019-04-14T07:26:32.561Z,3.40
2019-04-14T07:29:02.035Z,3.50
2019-04-14T07:31:50.035Z,3.60
2019-04-14T07:34:54.872Z,3.80
2019-04-14T07:37:39.794Z,3.90
2019-04-14T07:40:19.768Z,4.10
2019-04-14T07:42:56.368Z,4.30
2019-04-14T07:45:44.341Z,4.50
2019-04-14T07:48:24.766Z,4.60
2019-04-14T07:51:05.762Z,4.80
2019-04-14T07:53:51.629Z,5.00
2019-04-14T07:56:32.737Z,5.10
2019-04-14T07:59:07.312Z,5.20
2019-04-14T08:01:44.331Z,5.30
2019-04-14T08:04:20.231Z,5.30
2019-04-14T08:06:54.191Z,5.40
2019-04-14T08:09:23.528Z,5.50
2019-04-14T08:11:52.595Z,5.50
2019-04-14T08:14:21.474Z,5.60
2019-04-14T08:16:50.247Z,5.70
2019-04-14T08:19:21.549Z,5.80
2019-04-14T08:21:50.295Z,5.80
2019-04-14T08:24:22.407Z,5.80
2019-04-14T08:26:51.624Z,6.00
2019-04-14T08:29:20.898Z,6.10
2019-04-14T08:31:49.985Z,6.30
2019-04-14T08:34:18.895Z,6.40
2019-04-14T08:36:58.060Z,6.60
2019-04-14T08:39:27.129Z,6.90
2019-04-14T08:42:18.481Z,7.10
2019-04-14T08:44:50.567Z,7.30
2019-04-14T08:47:37.407Z,7.30
2019-04-14T08:50:19.441Z,7.30
2019-04-14T08:52:56.563Z,7.30
2019-04-14T08:55:48.300Z,7.50
2019-04-14T08:58:26.658Z,7.50
2019-04-14T09:01:07.018Z,7.60
2019-04-14T09:03:49.550Z,7.80
2019-04-14T09:06:25.671Z,8.00
2019-04-14T09:09:26.073Z,8.10
2019-04-14T09:12:14.586Z,8.20
2019-04-14T09:14:32.257Z,8.30
2019-04-14T09:17:03.056Z,8.30
2019-04-14T09:19:34.172Z,8.30
2019-04-14T09:22:06.086Z,8.40
2019-04-14T09:24:35.163Z,8.40
2019-04-14T09:27:04.103Z,8.50
2019-04-14T09:29:32.949Z,8.60
2019-04-14T09:32:02.926Z,8.70
2019-04-14T09:34:34.199Z,8.90
2019-04-14T09:37:03.432Z,9.20
2019-04-14T09:39:36.392Z,9.30
2019-04-14T09:42:06.648Z,9.60
2019-04-14T09:44:37.151Z,9.80
2019-04-14T09:47:06.968Z,9.80
2019-04-14T09:49:37.711Z,10.00
2019-04-14T09:52:07.154Z,9.90
2019-04-14T09:54:35.934Z,10.00
2019-04-14T09:57:05.683Z,10.10
2019-04-14T09:59:34.700Z,10.10
2019-04-14T10:02:03.890Z,10.20
2019-04-14T10:04:35.142Z,10.30
2019-04-14T10:07:04.022Z,10.30
2019-04-14T10:09:32.955Z,10.30
2019-04-14T10:12:11.331Z,10.50
2019-04-14T10:14:40.143Z,10.60
2019-04-14T10:17:09.246Z,10.70
2019-04-14T10:19:38.121Z,10.80
2019-04-14T10:22:08.169Z,10.70
2019-04-14T10:24:37.557Z,10.70
2019-04-14T10:27:06.834Z,10.60
2019-04-14T10:29:36.980Z,10.40
2019-04-14T10:32:05.896Z,10.20
2019-04-14T10:34:35.012Z,10.30
2019-04-14T10:37:04.283Z,10.30
2019-04-14T10:39:33.671Z,10.40
2019-04-14T10:42:02.925Z,10.60
2019-04-14T10:44:31.989Z,10.80
2019-04-14T10:47:01.573Z,10.80
2019-04-14T10:49:32.237Z,11.00
2019-04-14T10:52:01.854Z,10.90
2019-04-14T10:54:32.132Z,10.90
2019-04-14T10:57:01.414Z,10.80
2019-04-14T10:59:30.445Z,10.60
2019-04-14T11:01:59.893Z,10.40
2019-04-14T11:04:29.910Z,10.40
2019-04-14T11:07:08.214Z,10.50
2019-04-14T11:09:37.359Z,10.70
2019-04-14T11:12:07.366Z,10.70
2019-04-14T11:14:37.149Z,10.70
2019-04-14T11:17:06.598Z,10.60
2019-04-14T11:19:35.613Z,10.40
2019-04-14T11:22:04.352Z,10.40
2019-04-14T11:24:33.393Z,10.10
2019-04-14T11:27:02.717Z,10.10
2019-04-14T11:29:32.562Z,10.20
2019-04-14T11:32:25.683Z,10.00
2019-04-14T11:35:16.849Z,9.90
2019-04-14T11:37:57.961Z,9.90
2019-04-14T11:40:30.842Z,9.90
2019-04-14T11:42:59.593Z,9.80
2019-04-14T11:45:28.808Z,9.60
2019-04-14T11:47:58.011Z,9.60
2019-04-14T11:50:27.347Z,9.50
2019-04-14T11:52:56.713Z,9.30
2019-04-14T11:55:25.703Z,9.30
2019-04-14T11:57:57.589Z,9.10
2019-04-14T12:00:44.502Z,8.90
2019-04-14T12:03:20.917Z,8.70
2019-04-14T12:06:11.068Z,8.70
2019-04-14T12:08:50.902Z,8.60
2019-04-14T12:11:19.699Z,8.60
2019-04-14T12:13:48.735Z,8.70
2019-04-14T12:16:17.907Z,8.60
2019-04-14T12:18:46.916Z,8.70
2019-04-14T12:21:16.020Z,8.80
2019-04-14T12:23:45.027Z,8.70
2019-04-14T12:26:13.815Z,8.50
2019-04-14T12:28:42.933Z,8.40
2019-04-14T12:31:19.501Z,8.40
2019-04-14T12:33:48.687Z,8.30
2019-04-14T12:36:18.063Z,8.20
2019-04-14T12:38:47.078Z,8.20
2019-04-14T12:41:22.023Z,8.20
2019-04-14T12:44:18.314Z,8.20
2019-04-14T12:47:09.026Z,8.30
2019-04-14T12:49:40.521Z,8.40
2019-04-14T12:52:21.319Z,8.60
2019-04-14T12:54:48.941Z,8.70
2019-04-14T12:57:25.057Z,8.80
2019-04-14T12:59:55.195Z,8.80
2019-04-14T13:02:33.338Z,8.80
2019-04-14T13:05:07.931Z,8.80
2019-04-14T13:07:37.575Z,8.80
2019-04-14T13:10:07.690Z,8.80
2019-04-14T13:12:37.142Z,8.70
2019-04-14T13:15:06.914Z,8.80
2019-04-14T13:17:36.711Z,8.80
2019-04-14T13:20:06.152Z,8.70
2019-04-14T13:22:35.597Z,8.70
2019-04-14T13:25:04.807Z,8.60
2019-04-14T13:27:34.245Z,8.50
2019-04-14T13:30:04.117Z,8.50
2019-04-14T13:32:36.269Z,8.40
2019-04-14T13:35:04.027Z,8.50
2019-04-14T13:37:33.051Z,8.50
2019-04-14T13:40:02.781Z,8.50
2019-04-14T13:42:32.014Z,8.50
2019-04-14T13:45:01.072Z,8.50
2019-04-14T13:47:30.666Z,8.50
2019-04-14T13:50:01.222Z,8.50
2019-04-14T13:52:31.079Z,8.40
2019-04-14T13:55:00.884Z,8.30
2019-04-14T13:57:29.790Z,8.20
2019-04-14T13:59:59.226Z,8.30
2019-04-14T14:02:28.447Z,8.30
2019-04-14T14:04:57.719Z,8.40
2019-04-14T14:07:28.091Z,8.40
2019-04-14T14:09:57.384Z,8.50
2019-04-14T14:12:37.470Z,8.40
2019-04-14T14:15:25.181Z,8.50
2019-04-14T14:18:11.926Z,8.60
2019-04-14T14:21:01.061Z,8.60
2019-04-14T14:23:37.430Z,8.60
2019-04-14T14:26:09.260Z,8.60
2019-04-14T14:28:38.816Z,8.60
2019-04-14T14:31:08.034Z,8.50
2019-04-14T14:33:37.071Z,8.50
2019-04-14T14:36:06.378Z,8.50
2019-04-14T14:38:35.475Z,8.40
2019-04-14T14:41:05.562Z,8.60
2019-04-14T14:43:36.689Z,8.60
2019-04-14T14:46:29.207Z,8.80
2019-04-14T14:49:08.649Z,8.80
2019-04-14T14:51:54.767Z,8.90
2019-04-14T14:54:23.797Z,9.10
2019-04-14T14:56:52.630Z,9.10
2019-04-14T14:59:21.942Z,9.10
2019-04-14T15:01:51.370Z,9.20
2019-04-14T15:04:20.143Z,9.30
2019-04-14T15:06:49.293Z,9.30
2019-04-14T15:09:25.330Z,9.40
2019-04-14T15:11:55.285Z,9.30
2019-04-14T15:14:27.466Z,9.30
2019-04-14T15:16:57.456Z,9.20
2019-04-14T15:19:28.953Z,9.10
2019-04-14T15:22:00.737Z,9.00
2019-04-14T15:24:30.785Z,9.00
2019-04-14T15:27:00.467Z,9.00
2019-04-14T15:29:30.173Z,9.00
2019-04-14T15:31:59.315Z,9.00
2019-04-14T15:34:28.305Z,8.70
2019-04-14T15:36:57.080Z,8.70
2019-04-14T15:39:26.125Z,8.70
2019-04-14T15:41:55.489Z,8.60
2019-04-14T15:44:24.651Z,8.60
2019-04-14T15:46:53.731Z,8.40
2019-04-14T15:49:22.531Z,8.30
2019-04-14T15:51:51.543Z,8.20
2019-04-14T15:54:21.045Z,8.10
2019-04-14T15:57:04.967Z,8.10
2019-04-14T15:59:49.478Z,8.00
2019-04-14T16:02:27.838Z,7.90
2019-04-14T16:05:15.778Z,7.80
2019-04-14T16:08:07.324Z,7.70
2019-04-14T16:10:52.211Z,7.70
2019-04-14T16:13:39.025Z,7.60
2019-04-14T16:16:15.413Z,7.70
2019-04-14T16:18:57.398Z,7.70
2019-04-14T16:21:26.394Z,7.70
2019-04-14T16:23:55.727Z,7.70
2019-04-14T16:26:40.783Z,7.70
2019-04-14T16:29:14.893Z,7.70
2019-04-14T16:32:15.189Z,7.70
2019-04-14T16:34:47.475Z,7.70
2019-04-14T16:37:16.536Z,7.60
2019-04-14T16:39:46.596Z,7.60
2019-04-14T16:42:15.982Z,7.40
2019-04-14T16:44:50.427Z,7.30
2019-04-14T16:47:19.964Z,7.30
2019-04-14T16:50:16.991Z,7.20
2019-04-14T16:53:03.137Z,7.10
2019-04-14T16:56:07.202Z,7.00
2019-04-14T16:58:47.206Z,6.90
2019-04-14T17:01:24.511Z,6.80
2019-04-14T17:03:53.652Z,6.70
2019-04-14T17:06:23.582Z,6.70
2019-04-14T17:08:53.080Z,6.70
2019-04-14T17:11:22.029Z,6.80
2019-04-14T17:14:09.158Z,6.90
2019-04-14T17:17:15.660Z,6.90
2019-04-14T17:20:09.570Z,6.80
2019-04-14T17:22:59.806Z,6.70
2019-04-14T17:25:47.226Z,6.60
2019-04-14T17:28:31.193Z,6.60
2019-04-14T17:31:17.373Z,6.60
2019-04-14T17:33:56.572Z,6.50
2019-04-14T17:36:41.580Z,6.40
2019-04-14T17:39:18.802Z,6.40
2019-04-14T17:42:05.607Z,6.30
2019-04-14T17:44:46.257Z,6.30
2019-04-14T17:47:39.171Z,6.40
2019-04-14T17:50:18.178Z,6.40
2019-04-14T17:52:59.470Z,6.30
2019-04-14T17:55:49.388Z,6.20
2019-04-14T17:58:14.312Z,6.20
2019-04-14T18:01:01.682Z,6.20
2019-04-14T18:03:34.231Z,6.20
2019-04-14T18:06:25.319Z,6.10
2019-04-14T18:09:12.068Z,6.10
2019-04-14T18:11:52.137Z,6.00
2019-04-14T18:14:44.379Z,5.90
2019-04-14T18:17:28.300Z,5.90
2019-04-14T18:20:27.937Z,5.80
2019-04-14T18:22:57.611Z,5.90
2019-04-14T18:25:26.966Z,5.90
2019-04-14T18:28:26.774Z,6.00
2019-04-14T18:31:44.662Z,5.90
2019-04-14T18:35:29.004Z,5.90
2019-04-14T18:38:14.051Z,5.80
2019-04-14T18:40:57.157Z,5.80
2019-04-14T18:43:57.328Z,5.80
2019-04-14T18:47:22.587Z,5.80
2019-04-14T18:50:18.043Z,5.70
2019-04-14T18:53:07.320Z,5.70
2019-04-14T18:55:54.495Z,5.70
2019-04-14T18:58:33.713Z,5.60
2019-04-14T19:01:10.346Z,5.50
2019-04-14T19:03:40.317Z,5.50
2019-04-14T19:06:20.618Z,5.60
2019-04-14T19:08:52.283Z,5.70
2019-04-14T19:12:04.176Z,5.60
2019-04-14T19:15:07.087Z,5.60
2019-04-14T19:17:55.198Z,5.70
2019-04-14T19:20:27.118Z,5.60
2019-04-14T19:22:58.154Z,5.70
2019-04-14T19:25:28.552Z,5.60
2019-04-14T19:28:29.705Z,5.70
2019-04-14T19:30:59.595Z,5.70
2019-04-14T19:33:29.320Z,5.70
2019-04-14T19:36:37.548Z,5.70
2019-04-14T19:39:16.700Z,5.70
2019-04-14T19:42:03.622Z,5.70
2019-04-14T19:44:42.150Z,5.60
2019-04-14T19:47:11.166Z,5.70
2019-04-14T19:49:39.958Z,5.70
2019-04-14T19:52:09.046Z,5.80
2019-04-14T19:54:38.402Z,5.80
2019-04-14T19:57:12.826Z,5.90
2019-04-14T19:59:43.892Z,5.80
2019-04-14T20:02:13.344Z,5.80
2019-04-14T20:04:43.163Z,5.70
2019-04-14T20:07:13.318Z,5.70
2019-04-14T20:09:45.134Z,5.70
2019-04-14T20:12:16.020Z,5.70
2019-04-14T20:14:46.228Z,5.70
2019-04-14T20:17:34.220Z,5.70
2019-04-14T20:20:25.798Z,5.60
2019-04-14T20:23:20.105Z,5.60
2019-04-14T20:26:07.773Z,5.60
2019-04-14T20:28:47.218Z,5.60
2019-04-14T20:31:40.567Z,5.60
2019-04-14T20:34:09.996Z,5.70
2019-04-14T20:36:38.984Z,5.70
2019-04-14T20:39:11.923Z,5.70
2019-04-14T20:41:43.154Z,5.70
2019-04-14T20:44:13.374Z,5.70
2019-04-14T20:46:48.218Z,5.70
2019-04-14T20:49:31.053Z,5.60
2019-04-14T20:52:04.169Z,5.60
2019-04-14T20:54:33.322Z,5.70
2019-04-14T20:57:03.152Z,5.70
2019-04-14T20:59:32.162Z,5.70
2019-04-14T21:02:19.123Z,5.70
2019-04-14T21:05:09.919Z,5.60
2019-04-14T21:07:58.385Z,5.70
2019-04-14T21:10:40.022Z,5.70
2019-04-14T21:13:24.452Z,5.80
2019-04-14T21:16:12.096Z,5.80
2019-04-14T21:18:40.495Z,5.80
2019-04-14T21:21:28.854Z,5.80
2019-04-14T21:24:15.971Z,5.80
2019-04-14T21:26:59.797Z,5.80
2019-04-14T21:29:50.769Z,5.80
2019-04-14T21:32:30.129Z,5.80
2019-04-14T21:35:33.389Z,5.90
2019-04-14T21:38:21.774Z,5.90
2019-04-14T21:40:54.120Z,6.00
2019-04-14T21:43:23.501Z,6.00
2019-04-14T21:45:52.310Z,6.00
2019-04-14T21:48:21.325Z,6.00
2019-04-14T21:50:50.123Z,6.00
2019-04-14T21:53:19.390Z,6.00
2019-04-14T21:55:48.226Z,6.10
2019-04-14T21:58:34.465Z,6.10
2019-04-14T22:01:50.629Z,6.20
2019-04-14T22:04:50.959Z,6.20
2019-04-14T22:07:32.594Z,6.20
2019-04-14T22:10:09.227Z,6.20
2019-04-14T22:12:38.258Z,6.30
2019-04-14T22:15:07.270Z,6.30
2019-04-14T22:17:36.300Z,6.30
2019-04-14T22:20:05.195Z,6.20
2019-04-14T22:22:34.187Z,6.30
2019-04-14T22:25:02.961Z,6.30
2019-04-14T22:27:31.975Z,6.30
2019-04-14T22:30:00.722Z,6.30
2019-04-14T22:32:29.755Z,6.30
2019-04-14T22:34:58.850Z,6.40
2019-04-14T22:37:27.954Z,6.30
2019-04-14T22:39:56.731Z,6.30
2019-04-14T22:42:25.711Z,6.30
2019-04-14T22:44:54.486Z,6.40
2019-04-14T22:47:23.253Z,6.40
2019-04-14T22:49:52.633Z,6.40
2019-04-14T22:52:21.885Z,6.40
2019-04-14T22:54:54.469Z,6.40
2019-04-14T22:57:23.367Z,6.40
2019-04-14T22:59:52.422Z,6.40
2019-04-14T23:02:43.457Z,6.50
2019-04-14T23:05:22.099Z,6.50
2019-04-14T23:08:13.405Z,6.50
2019-04-14T23:10:53.587Z,6.50
2019-04-14T23:13:35.329Z,6.50
2019-04-14T23:16:14.470Z,6.50
2019-04-14T23:18:52.399Z,6.50
2019-04-14T23:21:30.846Z,6.50
2019-04-14T23:24:25.110Z,6.50
2019-04-14T23:26:54.351Z,6.50
2019-04-14T23:29:23.616Z,6.50
2019-04-14T23:31:52.396Z,6.50
2019-04-14T23:34:21.170Z,6.50
2019-04-14T23:36:51.162Z,6.50
2019-04-14T23:39:20.197Z,6.40
2019-04-14T23:41:48.949Z,6.40
2019-04-14T23:44:18.029Z,6.30
2019-04-14T23:46:46.811Z,6.30
2019-04-14T23:49:15.831Z,6.20
2019-04-14T23:51:44.943Z,6.20
2019-04-14T23:54:13.843Z,6.20
2019-04-14T23:56:42.984Z,6.30
2019-04-14T23:59:12.383Z,6.30
